createdAt,value
2018-08-20T00:00:32.835Z,55.68
2018-08-20T00:01:13.404Z,55.68
2018-08-20T00:01:53.970Z,55.2
2018-08-20T00:02:34.530Z,55.59
2018-08-20T00:03:15.097Z,55.78
2018-08-20T00:03:55.661Z,55.68
2018-08-20T00:04:36.224Z,55.59
2018-08-20T00:05:16.788Z,56.26
2018-08-20T00:05:57.351Z,56.07
2018-08-20T00:06:37.944Z,55.88
2018-08-20T00:07:18.514Z,56.36
2018-08-20T00:07:59.085Z,56.36
2018-08-20T00:08:39.692Z,56.16
2018-08-20T00:09:20.274Z,55.98
2018-08-20T00:10:00.840Z,56.46
2018-08-20T00:10:41.471Z,56.36
2018-08-20T00:11:22.031Z,56.46
2018-08-20T00:12:02.589Z,56.07
2018-08-20T00:12:43.149Z,55.59
2018-08-20T00:13:23.738Z,55.3
2018-08-20T00:14:04.306Z,55.59
2018-08-20T00:14:44.875Z,55.49
2018-08-20T00:15:25.425Z,55.4
2018-08-20T00:16:05.994Z,55.3
2018-08-20T00:16:46.557Z,55.59
2018-08-20T00:17:27.160Z,55.78
2018-08-20T00:18:07.793Z,55.68
2018-08-20T00:18:48.351Z,55.98
2018-08-20T00:19:28.912Z,56.36
2018-08-20T00:20:09.477Z,55.98
2018-08-20T00:20:50.036Z,56.07
2018-08-20T00:21:30.803Z,55.78
2018-08-20T00:22:11.372Z,56.16
2018-08-20T00:22:52.044Z,56.36
2018-08-20T00:23:32.618Z,56.46
2018-08-20T00:24:13.202Z,56.46
2018-08-20T00:24:53.776Z,56.56
2018-08-20T00:25:34.339Z,56.74
2018-08-20T00:26:14.906Z,57.14
2018-08-20T00:26:55.488Z,56.46
2018-08-20T00:27:36.057Z,57.32
2018-08-20T00:28:16.614Z,57.32
2018-08-20T00:28:57.177Z,57.52
2018-08-20T00:29:37.730Z,57.32
2018-08-20T00:30:18.314Z,57.62
2018-08-20T00:30:58.893Z,57.52
2018-08-20T00:31:39.484Z,57.62
2018-08-20T00:32:20.083Z,57.62
2018-08-20T00:33:00.647Z,57.62
2018-08-20T00:33:41.208Z,57.14
2018-08-20T00:34:21.774Z,57.14
2018-08-20T00:35:02.356Z,57.59
2018-08-20T00:35:42.928Z,57.42
2018-08-20T00:36:23.496Z,57.59
2018-08-20T00:37:04.067Z,57.71
2018-08-20T00:37:44.630Z,57.42
2018-08-20T00:38:25.179Z,57.9
2018-08-20T00:39:05.733Z,57.78
2018-08-20T00:39:46.323Z,57.39
2018-08-20T00:40:26.920Z,57.42
2018-08-20T00:41:07.470Z,57.32
2018-08-20T00:41:48.025Z,57.52
2018-08-20T00:42:28.597Z,57.39
2018-08-20T00:43:09.171Z,57.78
2018-08-20T00:43:49.742Z,57.68
2018-08-20T00:44:30.314Z,57.29
2018-08-20T00:45:10.881Z,57.39
2018-08-20T00:45:51.471Z,57.62
2018-08-20T00:46:32.048Z,57.39
2018-08-20T00:47:12.697Z,57.49
2018-08-20T00:47:53.191Z,56.94
2018-08-20T00:48:33.755Z,56.91
2018-08-20T00:49:14.319Z,56.84
2018-08-20T00:49:54.890Z,56.65
2018-08-20T00:50:35.450Z,56.81
2018-08-20T00:51:16.020Z,56.56
2018-08-20T00:51:56.633Z,56.36
2018-08-20T00:52:37.174Z,56.46
2018-08-20T00:53:17.740Z,56.16
2018-08-20T00:53:58.308Z,55.98
2018-08-20T00:54:38.863Z,56.16
2018-08-20T00:55:19.423Z,56.36
2018-08-20T00:56:00.019Z,55.68
2018-08-20T00:56:40.581Z,55.2
2018-08-20T00:57:21.151Z,55.94
2018-08-20T00:58:01.718Z,55.98
2018-08-20T00:58:42.292Z,56.33
2018-08-20T00:59:22.857Z,56.33
2018-08-20T01:00:03.446Z,56.33
2018-08-20T01:00:44.069Z,56.52
2018-08-20T01:01:24.631Z,56.24
2018-08-20T01:02:05.238Z,56.24
2018-08-20T01:02:45.800Z,55.66
2018-08-20T01:03:26.372Z,55.94
2018-08-20T01:04:06.943Z,56.52
2018-08-20T01:04:47.509Z,56.43
2018-08-20T01:05:28.068Z,56.26
2018-08-20T01:06:08.644Z,56.04
2018-08-20T01:06:49.228Z,55.85
2018-08-20T01:07:29.794Z,56.07
2018-08-20T01:08:10.360Z,56.33
2018-08-20T01:08:50.929Z,56.14
2018-08-20T01:09:31.521Z,55.46
2018-08-20T01:10:12.081Z,55.49
2018-08-20T01:10:52.646Z,55.46
2018-08-20T01:11:33.197Z,55.49
2018-08-20T01:12:13.786Z,55.78
2018-08-20T01:12:54.343Z,55.46
2018-08-20T01:13:34.908Z,55.46
2018-08-20T01:14:15.482Z,55.56
2018-08-20T01:14:56.041Z,55.56
2018-08-20T01:15:36.605Z,55.66
2018-08-20T01:16:17.169Z,55.01
2018-08-20T01:16:57.719Z,55.1
2018-08-20T01:17:38.336Z,55.2
2018-08-20T01:18:18.927Z,55.08
2018-08-20T01:18:59.487Z,55.18
2018-08-20T01:19:40.055Z,55.46
2018-08-20T01:20:20.616Z,55.27
2018-08-20T01:21:01.210Z,54.98
2018-08-20T01:21:41.789Z,54.69
2018-08-20T01:22:22.349Z,54.98
2018-08-20T01:23:02.933Z,54.91
2018-08-20T01:23:43.510Z,55.76
2018-08-20T01:24:24.098Z,55.68
2018-08-20T01:25:04.684Z,54.98
2018-08-20T01:25:45.252Z,55.01
2018-08-20T01:26:25.815Z,54.33
2018-08-20T01:27:06.379Z,54.5
2018-08-20T01:27:46.936Z,55.18
2018-08-20T01:28:27.521Z,55.1
2018-08-20T01:29:08.163Z,54.62
2018-08-20T01:29:48.761Z,54.53
2018-08-20T01:30:29.328Z,55.1
2018-08-20T01:31:09.906Z,55.49
2018-08-20T01:31:50.470Z,55.3
2018-08-20T01:32:31.073Z,54.91
2018-08-20T01:33:11.631Z,55.3
2018-08-20T01:33:52.197Z,55.1
2018-08-20T01:34:32.763Z,55.18
2018-08-20T01:35:13.368Z,55.08
2018-08-20T01:35:53.933Z,55.18
2018-08-20T01:36:34.493Z,54.91
2018-08-20T01:37:15.043Z,54.6
2018-08-20T01:37:55.634Z,54.69
2018-08-20T01:38:36.190Z,54.79
2018-08-20T01:39:16.756Z,54.69
2018-08-20T01:39:57.323Z,55.18
2018-08-20T01:40:37.874Z,55.56
2018-08-20T01:41:18.437Z,55.59
2018-08-20T01:41:58.999Z,55.18
2018-08-20T01:42:39.592Z,55.18
2018-08-20T01:43:20.178Z,54.69
2018-08-20T01:44:00.735Z,54.4
2018-08-20T01:44:41.300Z,54.69
2018-08-20T01:45:21.865Z,55.08
2018-08-20T01:46:02.453Z,55.66
2018-08-20T01:46:43.028Z,55.36
2018-08-20T01:47:23.590Z,55.76
2018-08-20T01:48:04.157Z,55.27
2018-08-20T01:48:44.715Z,55.46
2018-08-20T01:49:25.286Z,55.56
2018-08-20T01:50:05.836Z,55.18
2018-08-20T01:50:46.437Z,55.36
2018-08-20T01:51:26.996Z,55.27
2018-08-20T01:52:07.566Z,55.56
2018-08-20T01:52:48.140Z,55.46
2018-08-20T01:53:28.707Z,55.36
2018-08-20T01:54:09.269Z,55.08
2018-08-20T01:54:49.837Z,54.88
2018-08-20T01:55:30.404Z,55.18
2018-08-20T01:56:10.959Z,55.08
2018-08-20T01:56:51.537Z,55.18
2018-08-20T01:57:32.099Z,55.27
2018-08-20T01:58:12.668Z,55.18
2018-08-20T01:58:53.234Z,55.76
2018-08-20T01:59:33.791Z,55.76
2018-08-20T02:00:14.360Z,55.18
2018-08-20T02:00:54.924Z,55.08
2018-08-20T02:01:35.523Z,55.08
2018-08-20T02:02:16.088Z,55.18
2018-08-20T02:02:56.673Z,55.46
2018-08-20T02:03:37.216Z,55.56
2018-08-20T02:04:17.783Z,55.56
2018-08-20T02:04:58.344Z,55.36
2018-08-20T02:05:38.909Z,55.85
2018-08-20T02:06:19.501Z,55.56
2018-08-20T02:07:00.078Z,55.56
2018-08-20T02:07:40.638Z,55.27
2018-08-20T02:08:21.211Z,55.66
2018-08-20T02:09:01.780Z,55.66
2018-08-20T02:09:42.349Z,55.46
2018-08-20T02:10:22.926Z,55.94
2018-08-20T02:11:03.485Z,55.94
2018-08-20T02:11:44.042Z,55.94
2018-08-20T02:12:24.603Z,55.66
2018-08-20T02:13:05.174Z,56.04
2018-08-20T02:13:45.738Z,55.56
2018-08-20T02:14:26.301Z,56.52
2018-08-20T02:15:06.853Z,56.43
2018-08-20T02:15:47.433Z,56.33
2018-08-20T02:16:27.988Z,56.24
2018-08-20T02:17:08.546Z,56.14
2018-08-20T02:17:49.126Z,56.14
2018-08-20T02:18:29.721Z,56.24
2018-08-20T02:19:10.278Z,56.04
2018-08-20T02:19:50.845Z,56.24
2018-08-20T02:20:31.404Z,56.43
2018-08-20T02:21:11.967Z,55.94
2018-08-20T02:21:52.531Z,56.04
2018-08-20T02:22:33.104Z,55.94
2018-08-20T02:23:13.669Z,56.04
2018-08-20T02:23:54.236Z,56.14
2018-08-20T02:24:34.813Z,55.85
2018-08-20T02:25:15.386Z,56.04
2018-08-20T02:25:55.945Z,56.04
2018-08-20T02:26:36.491Z,56.33
2018-08-20T02:27:17.048Z,55.94
2018-08-20T02:27:57.621Z,55.56
2018-08-20T02:28:38.189Z,55.27
2018-08-20T02:29:18.744Z,55.46
2018-08-20T02:29:59.331Z,55.46
2018-08-20T02:30:39.869Z,55.66
2018-08-20T02:31:20.428Z,55.94
2018-08-20T02:32:00.976Z,56.24
2018-08-20T02:32:41.552Z,56.33
2018-08-20T02:33:22.114Z,56.33
2018-08-20T02:34:02.678Z,56.24
2018-08-20T02:34:43.244Z,56.33
2018-08-20T02:35:23.804Z,55.94
2018-08-20T02:36:04.372Z,55.85
2018-08-20T02:36:44.951Z,56.43
2018-08-20T02:37:25.526Z,56.24
2018-08-20T02:38:06.122Z,56.49
2018-08-20T02:38:46.685Z,56.52
2018-08-20T02:39:27.241Z,56.24
2018-08-20T02:40:07.808Z,56.43
2018-08-20T02:40:48.367Z,56.14
2018-08-20T02:41:28.933Z,56.52
2018-08-20T02:42:09.515Z,56.43
2018-08-20T02:42:50.085Z,56.49
2018-08-20T02:43:30.664Z,56.21
2018-08-20T02:44:11.213Z,56.3
2018-08-20T02:44:51.778Z,56.59
2018-08-20T02:45:32.337Z,56.21
2018-08-20T02:46:12.902Z,56.49
2018-08-20T02:46:53.459Z,56.79
2018-08-20T02:47:34.029Z,56.79
2018-08-20T02:48:14.590Z,56.49
2018-08-20T02:48:55.148Z,57.17
2018-08-20T02:49:35.790Z,56.79
2018-08-20T02:50:16.368Z,56.88
2018-08-20T02:50:56.936Z,56.98
2018-08-20T02:51:37.505Z,56.79
2018-08-20T02:52:18.066Z,56.88
2018-08-20T02:52:58.634Z,56.79
2018-08-20T02:53:39.216Z,56.79
2018-08-20T02:54:19.773Z,56.98
2018-08-20T02:55:00.338Z,56.98
2018-08-20T02:55:40.925Z,56.88
2018-08-20T02:56:21.495Z,56.59
2018-08-20T02:57:02.062Z,56.79
2018-08-20T02:57:42.635Z,56.59
2018-08-20T02:58:23.188Z,56.88
2018-08-20T02:59:03.753Z,57.17
2018-08-20T02:59:44.349Z,56.98
2018-08-20T03:00:24.926Z,57.17
2018-08-20T03:01:05.480Z,57.46
2018-08-20T03:01:46.058Z,57.27
2018-08-20T03:02:26.621Z,57.56
2018-08-20T03:03:07.225Z,57.17
2018-08-20T03:03:47.923Z,57.27
2018-08-20T03:04:28.385Z,57.27
2018-08-20T03:05:08.952Z,57.37
2018-08-20T03:05:49.514Z,57.65
2018-08-20T03:06:30.085Z,57.65
2018-08-20T03:07:10.646Z,57.37
2018-08-20T03:07:51.211Z,57.65
2018-08-20T03:08:31.774Z,57.65
2018-08-20T03:09:12.347Z,57.56
2018-08-20T03:09:52.966Z,57.46
2018-08-20T03:10:33.534Z,57.37
2018-08-20T03:11:14.102Z,57.46
2018-08-20T03:11:54.669Z,57.56
2018-08-20T03:12:35.236Z,58.01
2018-08-20T03:13:15.805Z,57.72
2018-08-20T03:13:56.386Z,58.3
2018-08-20T03:14:36.989Z,58.11
2018-08-20T03:15:17.532Z,58.04
2018-08-20T03:15:58.092Z,57.56
2018-08-20T03:16:38.670Z,57.92
2018-08-20T03:17:19.236Z,58.33
2018-08-20T03:17:59.807Z,58.42
2018-08-20T03:18:40.367Z,58.23
2018-08-20T03:19:20.935Z,58.4
2018-08-20T03:20:01.493Z,58.11
2018-08-20T03:20:42.050Z,58.23
2018-08-20T03:21:22.632Z,58.11
2018-08-20T03:22:03.214Z,58.01
2018-08-20T03:22:43.771Z,58.49
2018-08-20T03:23:24.330Z,58.69
2018-08-20T03:24:04.889Z,58.2
2018-08-20T03:24:45.456Z,58.69
2018-08-20T03:25:26.013Z,58.78
2018-08-20T03:26:06.583Z,58.81
2018-08-20T03:26:47.169Z,58.69
2018-08-20T03:27:27.729Z,58.88
2018-08-20T03:28:08.324Z,58.69
2018-08-20T03:28:48.895Z,58.59
2018-08-20T03:29:29.459Z,58.49
2018-08-20T03:30:10.012Z,58.97
2018-08-20T03:30:50.579Z,58.69
2018-08-20T03:31:31.133Z,58.88
2018-08-20T03:32:11.699Z,58.88
2018-08-20T03:32:52.253Z,58.4
2018-08-20T03:33:32.823Z,58.78
2018-08-20T03:34:13.389Z,58.69
2018-08-20T03:34:53.967Z,58.69
2018-08-20T03:35:34.532Z,58.97
2018-08-20T03:36:15.092Z,58.88
2018-08-20T03:36:55.656Z,58.69
2018-08-20T03:37:36.216Z,58.97
2018-08-20T03:38:16.802Z,59.27
2018-08-20T03:38:57.347Z,59.17
2018-08-20T03:39:37.938Z,59.45
2018-08-20T03:40:18.479Z,59.07
2018-08-20T03:40:59.043Z,59.27
2018-08-20T03:41:39.612Z,59.27
2018-08-20T03:42:20.172Z,59.65
2018-08-20T03:43:00.789Z,59.75
2018-08-20T03:43:41.366Z,59.75
2018-08-20T03:44:21.931Z,59.65
2018-08-20T03:45:02.509Z,59.55
2018-08-20T03:45:43.066Z,59.36
2018-08-20T03:46:23.630Z,59.75
2018-08-20T03:47:04.282Z,59.55
2018-08-20T03:47:44.850Z,59.94
2018-08-20T03:48:25.415Z,59.65
2018-08-20T03:49:05.973Z,59.84
2018-08-20T03:49:46.587Z,59.45
2018-08-20T03:50:27.214Z,59.55
2018-08-20T03:51:07.751Z,59.36
2018-08-20T03:51:48.379Z,59.45
2018-08-20T03:52:28.949Z,59.45
2018-08-20T03:53:09.519Z,59.84
2018-08-20T03:53:50.089Z,59.84
2018-08-20T03:54:30.658Z,59.94
2018-08-20T03:55:11.263Z,60.23
2018-08-20T03:55:51.793Z,60.32
2018-08-20T03:56:32.389Z,60.13
2018-08-20T03:57:12.950Z,60.32
2018-08-20T03:57:53.516Z,60.13
2018-08-20T03:58:34.088Z,60.03
2018-08-20T03:59:14.647Z,59.84
2018-08-20T03:59:55.215Z,59.75
2018-08-20T04:00:35.770Z,60.13
2018-08-20T04:01:16.343Z,60.13
2018-08-20T04:01:56.921Z,60.23
2018-08-20T04:02:37.495Z,60.13
2018-08-20T04:03:18.058Z,60.61
2018-08-20T04:03:58.669Z,60.52
2018-08-20T04:04:39.275Z,60.32
2018-08-20T04:05:19.841Z,60.03
2018-08-20T04:06:00.403Z,60.71
2018-08-20T04:06:40.989Z,60.8
2018-08-20T04:07:21.544Z,60.32
2018-08-20T04:08:02.122Z,59.75
2018-08-20T04:08:42.732Z,59.94
2018-08-20T04:09:23.276Z,60.32
2018-08-20T04:10:03.844Z,60.23
2018-08-20T04:10:44.494Z,60.2
2018-08-20T04:11:25.072Z,60.32
2018-08-20T04:12:05.649Z,60.23
2018-08-20T04:12:46.246Z,59.65
2018-08-20T04:13:26.818Z,59.94
2018-08-20T04:14:07.415Z,60.61
2018-08-20T04:14:47.986Z,60.13
2018-08-20T04:15:28.550Z,60.61
2018-08-20T04:16:09.124Z,60.8
2018-08-20T04:16:49.712Z,60.03
2018-08-20T04:17:30.277Z,60.03
2018-08-20T04:18:10.828Z,60.32
2018-08-20T04:18:51.388Z,59.75
2018-08-20T04:19:31.993Z,60.61
2018-08-20T04:20:12.517Z,60.13
2018-08-20T04:20:53.229Z,60.42
2018-08-20T04:21:33.813Z,60.8
2018-08-20T04:22:14.417Z,60.61
2018-08-20T04:22:55.016Z,60.71
2018-08-20T04:23:35.612Z,60.61
2018-08-20T04:24:16.170Z,60.42
2018-08-20T04:24:56.799Z,60.23
2018-08-20T04:25:37.365Z,60.13
2018-08-20T04:26:17.988Z,60.8
2018-08-20T04:26:58.563Z,60.8
2018-08-20T04:27:39.112Z,60.42
2018-08-20T04:28:19.670Z,61
2018-08-20T04:29:00.238Z,60.61
2018-08-20T04:29:40.813Z,61
2018-08-20T04:30:21.375Z,60.71
2018-08-20T04:31:01.966Z,60.61
2018-08-20T04:31:42.530Z,60.61
2018-08-20T04:32:23.101Z,60.61
2018-08-20T04:33:03.711Z,60.9
2018-08-20T04:33:44.273Z,60.8
2018-08-20T04:34:24.832Z,60.9
2018-08-20T04:35:05.401Z,60.8
2018-08-20T04:35:45.980Z,60.9
2018-08-20T04:36:26.599Z,60.61
2018-08-20T04:37:07.134Z,60.8
2018-08-20T04:37:47.695Z,61.19
2018-08-20T04:38:28.251Z,60.61
2018-08-20T04:39:08.831Z,60.71
2018-08-20T04:39:49.399Z,60.71
2018-08-20T04:40:29.975Z,60.8
2018-08-20T04:41:10.538Z,60.8
2018-08-20T04:41:51.162Z,60.71
2018-08-20T04:42:31.717Z,61.19
2018-08-20T04:43:12.284Z,61.1
2018-08-20T04:43:52.900Z,60.61
2018-08-20T04:44:33.450Z,60.8
2018-08-20T04:45:14.007Z,60.61
2018-08-20T04:45:54.590Z,61.1
2018-08-20T04:46:35.156Z,61
2018-08-20T04:47:15.728Z,60.42
2018-08-20T04:47:56.291Z,60.8
2018-08-20T04:48:36.922Z,60.71
2018-08-20T04:49:17.519Z,60.8
2018-08-20T04:49:58.257Z,60.61
2018-08-20T04:50:38.824Z,60.61
2018-08-20T04:51:19.442Z,60.42
2018-08-20T04:51:59.976Z,60.61
2018-08-20T04:52:40.497Z,60.9
2018-08-20T04:53:21.082Z,61.29
2018-08-20T04:54:01.628Z,61.58
2018-08-20T04:54:42.193Z,61.68
2018-08-20T04:55:22.765Z,61.48
2018-08-20T04:56:03.329Z,61.68
2018-08-20T04:56:43.890Z,61.68
2018-08-20T04:57:24.458Z,62.25
2018-08-20T04:58:05.014Z,61.96
2018-08-20T04:58:45.569Z,62.15
2018-08-20T04:59:26.166Z,62.45
2018-08-20T05:00:06.723Z,61.96
2018-08-20T05:00:47.290Z,62.15
2018-08-20T05:01:27.845Z,62.25
2018-08-20T05:02:08.417Z,61.96
2018-08-20T05:02:49.002Z,62.06
2018-08-20T05:03:29.579Z,62.54
2018-08-20T05:04:10.158Z,62.63
2018-08-20T05:04:50.713Z,62.63
2018-08-20T05:05:31.310Z,62.73
2018-08-20T05:06:11.882Z,62.73
2018-08-20T05:06:52.444Z,62.83
2018-08-20T05:07:33.010Z,62.73
2018-08-20T05:08:13.559Z,62.54
2018-08-20T05:08:54.146Z,62.73
2018-08-20T05:09:34.701Z,62.93
2018-08-20T05:10:15.280Z,62.63
2018-08-20T05:10:55.899Z,62.73
2018-08-20T05:11:36.474Z,62.45
2018-08-20T05:12:17.025Z,62.63
2018-08-20T05:12:57.593Z,62.63
2018-08-20T05:13:38.160Z,62.54
2018-08-20T05:14:18.728Z,62.54
2018-08-20T05:14:59.326Z,62.45
2018-08-20T05:15:39.916Z,62.63
2018-08-20T05:16:20.476Z,62.63
2018-08-20T05:17:01.035Z,62.45
2018-08-20T05:17:41.590Z,63.02
2018-08-20T05:18:22.162Z,62.83
2018-08-20T05:19:02.876Z,62.63
2018-08-20T05:19:43.305Z,62.45
2018-08-20T05:20:23.878Z,62.63
2018-08-20T05:21:04.447Z,62.73
2018-08-20T05:21:45.015Z,62.54
2018-08-20T05:22:25.608Z,62.66
2018-08-20T05:23:06.178Z,62.63
2018-08-20T05:23:46.775Z,62.45
2018-08-20T05:24:27.336Z,62.48
2018-08-20T05:25:07.902Z,62.48
2018-08-20T05:25:48.504Z,62.66
2018-08-20T05:26:29.086Z,62.66
2018-08-20T05:27:09.650Z,62.28
2018-08-20T05:27:50.251Z,62.38
2018-08-20T05:28:30.804Z,62.28
2018-08-20T05:29:11.370Z,61.99
2018-08-20T05:29:51.931Z,62.28
2018-08-20T05:30:32.578Z,62.18
2018-08-20T05:31:13.160Z,62.09
2018-08-20T05:31:53.705Z,62.28
2018-08-20T05:32:34.282Z,62.18
2018-08-20T05:33:14.906Z,62.09
2018-08-20T05:33:55.511Z,62.09
2018-08-20T05:34:36.083Z,61.9
2018-08-20T05:35:16.639Z,62.28
2018-08-20T05:35:57.199Z,62.09
2018-08-20T05:36:37.762Z,62.18
2018-08-20T05:37:18.327Z,62.28
2018-08-20T05:37:58.920Z,62.38
2018-08-20T05:38:39.497Z,62.18
2018-08-20T05:39:20.055Z,62.18
2018-08-20T05:40:00.629Z,62.28
2018-08-20T05:40:41.193Z,62.48
2018-08-20T05:41:21.743Z,62.57
2018-08-20T05:42:02.316Z,62.38
2018-08-20T05:42:42.869Z,62.48
2018-08-20T05:43:23.431Z,62.28
2018-08-20T05:44:03.995Z,62.12
2018-08-20T05:44:44.598Z,62.12
2018-08-20T05:45:25.146Z,62.22
2018-08-20T05:46:05.725Z,61.9
2018-08-20T05:46:46.278Z,62.12
2018-08-20T05:47:26.844Z,61.64
2018-08-20T05:48:07.440Z,61.25
2018-08-20T05:48:48.020Z,60.96
2018-08-20T05:49:28.640Z,61.16
2018-08-20T05:50:09.192Z,60.86
2018-08-20T05:50:49.754Z,60.86
2018-08-20T05:51:30.319Z,60.77
2018-08-20T05:52:10.895Z,60.68
2018-08-20T05:52:51.460Z,60.96
2018-08-20T05:53:32.061Z,60.58
2018-08-20T05:54:12.642Z,61.16
2018-08-20T05:54:53.203Z,61.06
2018-08-20T05:55:36.072Z,60.96
2018-08-20T05:56:15.865Z,60.38
2018-08-20T05:56:56.418Z,60.48
2018-08-20T05:57:37.177Z,60.48
2018-08-20T05:58:17.779Z,60.38
2018-08-20T05:58:58.400Z,60.28
2018-08-20T05:59:38.936Z,60.31
2018-08-20T06:00:19.516Z,60.13
2018-08-20T06:01:00.095Z,60
2018-08-20T06:01:40.668Z,60.71
2018-08-20T06:02:22.636Z,60.22
2018-08-20T06:03:03.240Z,60.51
2018-08-20T06:03:43.871Z,60.22
2018-08-20T06:04:24.610Z,59.93
2018-08-20T06:05:05.759Z,59.93
2018-08-20T06:05:46.936Z,60.22
2018-08-20T06:06:27.511Z,60.13
2018-08-20T06:07:08.109Z,59.93
2018-08-20T06:07:48.741Z,60.03
2018-08-20T06:08:29.265Z,59.55
2018-08-20T06:09:09.869Z,59.45
2018-08-20T06:09:50.443Z,59.74
2018-08-20T06:10:31.107Z,59.35
2018-08-20T06:11:11.869Z,59.16
2018-08-20T06:11:52.476Z,59.45
2018-08-20T06:12:33.211Z,59.25
2018-08-20T06:13:13.850Z,59.16
2018-08-20T06:13:54.452Z,59.25
2018-08-20T06:14:35.043Z,59.06
2018-08-20T06:15:15.654Z,59.83
2018-08-20T06:15:56.221Z,59.55
2018-08-20T06:16:36.847Z,59.93
2018-08-20T06:17:17.498Z,59.25
2018-08-20T06:17:58.069Z,59.93
2018-08-20T06:18:39.835Z,59.55
2018-08-20T06:19:20.591Z,59.16
2018-08-20T06:20:01.201Z,59.25
2018-08-20T06:20:41.809Z,59.58
2018-08-20T06:21:22.445Z,59.19
2018-08-20T06:22:03.003Z,59.09
2018-08-20T06:22:43.655Z,59
2018-08-20T06:23:24.177Z,58.42
2018-08-20T06:24:04.752Z,58.7
2018-08-20T06:24:45.787Z,58.8
2018-08-20T06:25:26.459Z,58.48
2018-08-20T06:26:07.222Z,58.8
2018-08-20T06:26:47.788Z,59.09
2018-08-20T06:27:28.499Z,58.9
2018-08-20T06:28:09.185Z,58.9
2018-08-20T06:28:49.800Z,58.8
2018-08-20T06:29:30.442Z,58.8
2018-08-20T06:30:11.004Z,58.9
2018-08-20T06:30:51.757Z,58.42
2018-08-20T06:31:32.315Z,58.06
2018-08-20T06:32:12.920Z,57.74
2018-08-20T06:32:53.682Z,58.03
2018-08-20T06:33:34.266Z,58.06
2018-08-20T06:34:14.832Z,58.06
2018-08-20T06:34:55.396Z,57.57
2018-08-20T06:35:35.988Z,57.67
2018-08-20T06:36:16.593Z,57.29
2018-08-20T06:36:57.185Z,57.67
2018-08-20T06:37:37.751Z,57.48
2018-08-20T06:38:18.317Z,57.48
2018-08-20T06:38:58.904Z,57.67
2018-08-20T06:39:39.459Z,57.48
2018-08-20T06:40:20.022Z,57.48
2018-08-20T06:41:00.592Z,57.38
2018-08-20T06:41:41.229Z,56.9
2018-08-20T06:42:21.751Z,56.41
2018-08-20T06:43:03.164Z,56.41
2018-08-20T06:43:43.746Z,56.41
2018-08-20T06:44:24.326Z,56.22
2018-08-20T06:45:04.883Z,56.71
2018-08-20T06:45:45.449Z,56.51
2018-08-20T06:46:26.026Z,56.9
2018-08-20T06:47:06.629Z,56.8
2018-08-20T06:47:47.204Z,56.99
2018-08-20T06:48:27.842Z,56.61
2018-08-20T06:49:08.416Z,56.93
2018-08-20T06:49:49.010Z,57.03
2018-08-20T06:50:29.577Z,56.63
2018-08-20T06:51:10.145Z,56.15
2018-08-20T06:51:50.693Z,56.35
2018-08-20T06:52:31.303Z,56.28
2018-08-20T06:53:11.883Z,56.86
2018-08-20T06:53:52.458Z,56.95
2018-08-20T06:54:33.191Z,56.28
2018-08-20T06:55:13.731Z,55.02
2018-08-20T06:55:54.314Z,54.63
2018-08-20T06:56:34.888Z,54.73
2018-08-20T06:57:15.493Z,55.21
2018-08-20T06:57:56.084Z,55.6
2018-08-20T06:58:36.659Z,56.09
2018-08-20T06:59:17.219Z,55.6
2018-08-20T06:59:57.799Z,55.15
2018-08-20T07:00:38.382Z,54.57
2018-08-20T07:01:18.952Z,53.69
2018-08-20T07:01:59.503Z,53.72
2018-08-20T07:02:40.078Z,53.33
2018-08-20T07:03:20.643Z,53.43
2018-08-20T07:04:01.210Z,53.43
2018-08-20T07:04:41.835Z,52.85
2018-08-20T07:05:22.399Z,52.97
2018-08-20T07:06:03.116Z,52.68
2018-08-20T07:06:43.695Z,53.07
2018-08-20T07:07:24.282Z,53.55
2018-08-20T07:08:04.859Z,53.07
2018-08-20T07:08:45.418Z,52.68
2018-08-20T07:09:26.008Z,51.84
2018-08-20T07:10:06.585Z,51.45
2018-08-20T07:10:47.125Z,51.06
2018-08-20T07:11:27.719Z,51.23
2018-08-20T07:12:08.374Z,51.62
2018-08-20T07:12:48.918Z,51.72
2018-08-20T07:13:29.598Z,52.2
2018-08-20T07:14:10.168Z,52.49
2018-08-20T07:14:50.733Z,52.75
2018-08-20T07:15:31.318Z,52.66
2018-08-20T07:16:12.082Z,53.04
2018-08-20T07:16:52.656Z,53.33
2018-08-20T07:17:33.267Z,53.53
2018-08-20T07:18:13.869Z,53.43
2018-08-20T07:18:54.454Z,53.89
2018-08-20T07:19:35.026Z,53.89
2018-08-20T07:20:15.585Z,54.08
2018-08-20T07:20:56.155Z,54.57
2018-08-20T07:21:36.716Z,54.73
2018-08-20T07:22:17.288Z,54.83
2018-08-20T07:22:57.919Z,55.11
2018-08-20T07:23:38.479Z,55.11
2018-08-20T07:24:19.020Z,55.7
2018-08-20T07:24:59.607Z,55.79
2018-08-20T07:25:40.151Z,55.57
2018-08-20T07:26:20.714Z,56.05
2018-08-20T07:27:01.296Z,56.63
2018-08-20T07:27:41.928Z,56.63
2018-08-20T07:28:22.470Z,56.63
2018-08-20T07:29:03.046Z,57.12
2018-08-20T07:29:43.955Z,57.21
2018-08-20T07:30:24.511Z,57.41
2018-08-20T07:31:05.176Z,57.7
2018-08-20T07:31:45.796Z,57.51
2018-08-20T07:32:26.403Z,57.41
2018-08-20T07:33:07.356Z,57.79
2018-08-20T07:33:47.803Z,57.51
2018-08-20T07:34:28.392Z,57.6
2018-08-20T07:35:09.030Z,57.51
2018-08-20T07:35:50.147Z,58.18
2018-08-20T07:36:30.727Z,57.41
2018-08-20T07:37:11.313Z,57.79
2018-08-20T07:37:51.984Z,57.6
2018-08-20T07:38:32.587Z,57.89
2018-08-20T07:39:13.233Z,57.89
2018-08-20T07:39:53.793Z,57.79
2018-08-20T07:40:34.387Z,57.6
2018-08-20T07:41:14.973Z,57.6
2018-08-20T07:41:55.541Z,57.51
2018-08-20T07:42:36.115Z,57.7
2018-08-20T07:43:16.687Z,57.99
2018-08-20T07:43:57.307Z,57.41
2018-08-20T07:44:37.867Z,57.7
2018-08-20T07:45:18.443Z,57.99
2018-08-20T07:45:59.040Z,57.79
2018-08-20T07:46:39.585Z,57.7
2018-08-20T07:47:20.247Z,57.7
2018-08-20T07:48:00.824Z,57.79
2018-08-20T07:48:41.415Z,57.82
2018-08-20T07:49:22.016Z,57.73
2018-08-20T07:50:02.586Z,57.92
2018-08-20T07:50:43.149Z,57.63
2018-08-20T07:51:23.713Z,57.54
2018-08-20T07:52:04.380Z,57.79
2018-08-20T07:52:44.969Z,57.7
2018-08-20T07:53:25.587Z,57.41
2018-08-20T07:54:06.168Z,57.7
2018-08-20T07:54:46.723Z,57.79
2018-08-20T07:55:27.311Z,57.51
2018-08-20T07:56:07.868Z,58.09
2018-08-20T07:56:48.447Z,57.99
2018-08-20T07:57:29.028Z,57.79
2018-08-20T07:58:09.589Z,58.18
2018-08-20T07:58:50.129Z,57.79
2018-08-20T07:59:30.701Z,58.18
2018-08-20T08:00:11.315Z,57.79
2018-08-20T08:00:51.888Z,57.79
2018-08-20T08:01:32.477Z,58.57
2018-08-20T08:02:13.062Z,58.37
2018-08-20T08:02:53.618Z,58.28
2018-08-20T08:03:34.173Z,58.57
2018-08-20T08:04:14.751Z,58.76
2018-08-20T08:04:55.411Z,58.95
2018-08-20T08:05:36.022Z,58.86
2018-08-20T08:06:16.569Z,58.67
2018-08-20T08:06:57.126Z,58.76
2018-08-20T08:07:37.719Z,58.76
2018-08-20T08:08:18.312Z,59.05
2018-08-20T08:08:58.870Z,58.86
2018-08-20T08:09:39.449Z,58.95
2018-08-20T08:10:20.027Z,59.15
2018-08-20T08:11:00.624Z,58.76
2018-08-20T08:11:41.182Z,58.86
2018-08-20T08:12:21.774Z,58.95
2018-08-20T08:13:02.345Z,58.76
2018-08-20T08:13:42.914Z,58.86
2018-08-20T08:14:23.482Z,59.34
2018-08-20T08:15:04.037Z,59.34
2018-08-20T08:15:44.593Z,58.95
2018-08-20T08:16:25.161Z,58.95
2018-08-20T08:17:05.810Z,58.86
2018-08-20T08:17:46.407Z,59.53
2018-08-20T08:18:26.998Z,59.53
2018-08-20T08:19:07.549Z,60.02
2018-08-20T08:19:48.141Z,59.44
2018-08-20T08:20:28.696Z,59.34
2018-08-20T08:21:09.268Z,59.25
2018-08-20T08:21:50.332Z,59.25
2018-08-20T08:22:30.935Z,59.34
2018-08-20T08:23:11.605Z,59.44
2018-08-20T08:23:52.227Z,59.05
2018-08-20T08:24:32.807Z,59.15
2018-08-20T08:25:13.373Z,59.15
2018-08-20T08:25:53.974Z,59.12
2018-08-20T08:26:34.623Z,59.7
2018-08-20T08:27:15.117Z,59.44
2018-08-20T08:27:55.737Z,59.12
2018-08-20T08:28:36.293Z,59.12
2018-08-20T08:29:16.869Z,59.12
2018-08-20T08:29:57.454Z,59.31
2018-08-20T08:30:38.034Z,59.8
2018-08-20T08:31:18.580Z,59.51
2018-08-20T08:31:59.180Z,59.89
2018-08-20T08:32:39.763Z,59.51
2018-08-20T08:33:20.326Z,59.8
2018-08-20T08:34:00.917Z,60.18
2018-08-20T08:34:41.477Z,59.6
2018-08-20T08:35:22.032Z,59.99
2018-08-20T08:36:02.640Z,59.8
2018-08-20T08:36:43.215Z,59.99
2018-08-20T08:37:23.789Z,59.99
2018-08-20T08:38:04.435Z,59.53
2018-08-20T08:38:44.932Z,59.8
2018-08-20T08:39:25.508Z,59.41
2018-08-20T08:40:06.054Z,59.12
2018-08-20T08:40:46.623Z,59.12
2018-08-20T08:41:27.225Z,59.31
2018-08-20T08:42:07.793Z,59.31
2018-08-20T08:42:48.361Z,59.8
2018-08-20T08:43:28.925Z,59.8
2018-08-20T08:44:09.478Z,59.12
2018-08-20T08:44:50.038Z,59.7